Time;durP1;ratioP1;P1;durP2;ratioP2;P2;SDS_P1;SDS_P2;PMS_P1;PMS_P2;Temp;Humidity;BMP_temperature;BMP_pressure;BME280_temperature;BME280_humidity;BME280_pressure;Samples;Min_cycle;Max_cycle;Signal;HPM_P1;HPM_P2
2022/03/30 00:00:28;;;;;;;16.73;9.13;;;7.50;70.00;;;;;;5053615;28;20013;-30
2022/03/30 00:02:54;;;;;;;20.25;8.45;;;7.50;70.00;;;;;;5054936;28;20025;-29
2022/03/30 00:05:20;;;;;;;17.42;8.90;;;7.50;70.00;;;;;;5055181;28;20100;-30
2022/03/30 00:07:50;;;;;;;20.35;9.52;;;7.50;69.90;;;;;;5054865;28;20533;-29
2022/03/30 00:10:16;;;;;;;16.27;8.65;;;7.50;69.90;;;;;;5054851;28;20453;-30
2022/03/30 00:12:42;;;;;;;16.98;9.45;;;7.50;69.90;;;;;;5054800;28;20022;-29
2022/03/30 00:15:08;;;;;;;19.40;9.23;;;7.50;70.00;;;;;;5054731;28;20021;-32
2022/03/30 00:17:33;;;;;;;17.25;8.50;;;7.50;70.00;;;;;;5054765;28;20523;-29
2022/03/30 00:19:59;;;;;;;16.42;8.90;;;7.50;70.60;;;;;;5053816;28;20021;-29
2022/03/30 00:22:26;;;;;;;16.42;8.43;;;7.50;70.00;;;;;;5054722;28;20013;-29
2022/03/30 00:24:52;;;;;;;16.30;8.98;;;7.50;70.00;;;;;;5054557;28;20021;-30
2022/03/30 00:27:17;;;;;;;23.23;9.52;;;7.50;70.10;;;;;;5054547;28;20025;-29
2022/03/30 00:29:44;;;;;;;18.08;8.45;;;7.50;70.20;;;;;;5054398;28;20044;-30
2022/03/30 00:32:11;;;;;;;20.55;8.68;;;7.40;70.20;;;;;;5054568;28;20025;-31
2022/03/30 00:34:37;;;;;;;15.18;8.35;;;7.40;70.30;;;;;;5054372;28;20564;-36
2022/03/30 00:37:02;;;;;;;15.10;8.25;;;7.40;70.40;;;;;;5054331;28;20082;-29
2022/03/30 00:39:28;;;;;;;20.33;9.25;;;7.40;70.50;;;;;;5054224;28;20028;-29
2022/03/30 00:41:54;;;;;;;15.98;8.65;;;7.40;70.50;;;;;;5054214;28;20027;-29
2022/03/30 00:44:19;;;;;;;17.58;8.38;;;7.40;70.40;;;;;;5054229;28;20029;-29
2022/03/30 00:46:45;;;;;;;19.60;8.75;;;7.40;70.40;;;;;;5054193;28;20621;-29
2022/03/30 00:49:14;;;;;;;18.80;8.18;;;7.40;70.40;;;;;;5054133;28;20029;-30
2022/03/30 00:51:40;;;;;;;17.40;9.15;;;7.40;70.40;;;;;;5054081;28;20033;-31
2022/03/30 00:54:05;;;;;;;18.02;8.57;;;7.40;70.50;;;;;;5054382;28;20024;-29
2022/03/30 00:56:33;;;;;;;17.77;8.43;;;7.30;70.50;;;;;;5054015;28;20028;-29
2022/03/30 00:59:05;;;;;;;21.02;9.30;;;7.30;70.60;;;;;;5053696;28;20090;-30
2022/03/30 01:01:31;;;;;;;18.13;8.77;;;7.20;70.70;;;;;;5054191;28;20382;-28
2022/03/30 01:03:57;;;;;;;17.90;8.93;;;7.20;70.80;;;;;;5053766;28;20078;-29
2022/03/30 01:06:23;;;;;;;14.82;8.23;;;7.10;70.90;;;;;;5053822;28;20381;-29
2022/03/30 01:08:49;;;;;;;14.65;8.25;;;7.10;70.90;;;;;;5053778;28;20025;-34
2022/03/30 01:11:16;;;;;;;14.88;7.95;;;7.10;70.90;;;;;;5053783;28;20150;-30
2022/03/30 01:13:42;;;;;;;15.82;7.68;;;7.10;71.00;;;;;;5053585;28;20021;-29
2022/03/30 01:16:07;;;;;;;16.90;8.13;;;7.10;71.00;;;;;;5053675;28;20496;-29
2022/03/30 01:18:40;;;;;;;16.65;7.55;;;7.10;70.90;;;;;;5053499;28;20036;-36
2022/03/30 01:21:08;;;;;;;13.77;7.30;;;7.10;70.90;;;;;;5052213;28;20051;-34
2022/03/30 01:23:34;;;;;;;12.75;7.07;;;7.20;70.90;;;;;;5053468;28;20105;-29
2022/03/30 01:25:59;;;;;;;16.63;7.40;;;7.20;70.80;;;;;;5053352;28;20060;-28
2022/03/30 01:28:28;;;;;;;16.58;7.55;;;7.20;70.80;;;;;;5053642;28;20074;-29
2022/03/30 01:33:46;;;;;;;20.92;8.07;;;7.20;70.70;;;;;;5053211;28;20040;-29
2022/03/30 01:36:12;;;;;;;17.25;7.28;;;7.20;70.70;;;;;;5053257;28;20039;-32
2022/03/30 01:38:38;;;;;;;13.38;7.03;;;7.20;70.80;;;;;;5053062;28;20033;-29
2022/03/30 01:41:04;;;;;;;20.92;7.70;;;7.20;70.90;;;;;;5053509;28;20086;-33
2022/03/30 01:43:30;;;;;;;16.98;7.90;;;7.10;70.90;;;;;;5053158;28;20025;-29
2022/03/30 01:45:55;;;;;;;14.30;7.50;;;7.10;70.90;;;;;;5053099;28;20032;-29
2022/03/30 01:48:21;;;;;;;16.08;7.85;;;7.10;71.00;;;;;;5053281;28;20018;-29
2022/03/30 01:50:47;;;;;;;15.30;7.40;;;7.10;71.10;;;;;;5053220;28;20031;-30
2022/03/30 01:53:13;;;;;;;13.57;7.35;;;7.10;71.10;;;;;;5053087;28;20381;-31
2022/03/30 01:55:39;;;;;;;16.77;7.80;;;7.10;71.80;;;;;;5053193;28;20036;-30
2022/03/30 01:58:05;;;;;;;15.05;7.30;;;7.10;71.20;;;;;;5052709;28;20482;-29
2022/03/30 02:00:32;;;;;;;19.55;8.27;;;7.00;71.20;;;;;;5053171;28;20131;-28
2022/03/30 02:02:58;;;;;;;14.35;7.65;;;7.00;71.30;;;;;;5052801;28;20063;-33
2022/03/30 02:05:24;;;;;;;15.98;8.13;;;6.90;71.30;;;;;;5053110;28;20016;-30
2022/03/30 02:07:50;;;;;;;15.98;7.43;;;6.90;71.50;;;;;;5052764;28;20033;-29
2022/03/30 02:10:16;;;;;;;16.17;7.90;;;6.80;71.50;;;;;;5052633;28;20445;-29
2022/03/30 02:12:42;;;;;;;13.68;8.20;;;6.80;72.20;;;;;;5052753;28;20166;-30
2022/03/30 02:15:10;;;;;;;19.48;8.38;;;6.80;71.70;;;;;;5052695;28;20029;-29
2022/03/30 02:17:37;;;;;;;18.40;7.40;;;6.70;71.70;;;;;;5052771;28;20033;-30
2022/03/30 02:20:05;;;;;;;17.50;8.45;;;6.60;71.80;;;;;;5052714;28;20028;-30
2022/03/30 02:22:30;;;;;;;17.73;8.57;;;6.60;71.90;;;;;;5052675;28;20036;-29
2022/03/30 02:24:56;;;;;;;19.27;8.82;;;6.60;72.00;;;;;;5051262;28;20545;-36
2022/03/30 02:27:22;;;;;;;14.77;7.90;;;6.50;72.10;;;;;;5052589;28;20017;-29
2022/03/30 02:29:49;;;;;;;20.20;7.80;;;6.50;72.20;;;;;;5052505;28;20037;-29
2022/03/30 02:32:15;;;;;;;16.02;8.23;;;6.50;72.30;;;;;;5052442;28;20029;-30
2022/03/30 02:34:42;;;;;;;15.63;8.30;;;6.50;72.30;;;;;;5052513;28;20036;-29
2022/03/30 02:37:08;;;;;;;16.10;7.85;;;6.50;72.30;;;;;;5051188;28;20337;-29
2022/03/30 02:39:34;;;;;;;14.88;7.85;;;6.60;72.20;;;;;;5051078;28;20079;-31
2022/03/30 02:42:01;;;;;;;18.92;8.07;;;6.50;72.20;;;;;;5053279;28;20051;-29
2022/03/30 02:44:27;;;;;;;20.35;8.63;;;6.50;72.20;;;;;;5056798;28;20523;-31
2022/03/30 02:46:52;;;;;;;16.23;9.05;;;6.40;72.20;;;;;;5056459;28;20053;-32
2022/03/30 02:49:18;;;;;;;14.60;7.78;;;6.40;72.40;;;;;;5056681;28;20392;-30
2022/03/30 02:51:44;;;;;;;16.98;7.78;;;6.40;72.50;;;;;;5056378;28;20035;-29
2022/03/30 02:54:09;;;;;;;17.45;7.78;;;6.40;72.50;;;;;;5056419;28;20025;-30
2022/03/30 02:56:35;;;;;;;17.10;7.65;;;6.40;72.60;;;;;;5056532;28;20063;-33
2022/03/30 02:59:01;;;;;;;14.32;7.85;;;6.40;72.60;;;;;;5055983;28;20078;-29
2022/03/30 03:01:26;;;;;;;15.98;7.88;;;6.40;72.60;;;;;;5056441;28;20504;-29
2022/03/30 03:03:52;;;;;;;18.50;7.88;;;6.40;72.60;;;;;;5056144;28;20020;-30
2022/03/30 03:06:18;;;;;;;16.65;8.00;;;6.40;72.60;;;;;;5056078;28;20533;-31
2022/03/30 03:08:43;;;;;;;18.05;8.63;;;6.30;72.60;;;;;;5056022;28;20040;-31
2022/03/30 03:11:10;;;;;;;18.50;9.13;;;6.20;72.70;;;;;;5056051;28;20059;-29
2022/03/30 03:13:35;;;;;;;15.85;8.55;;;6.10;72.80;;;;;;5056279;28;20272;-29
2022/03/30 03:16:01;;;;;;;18.60;8.60;;;6.10;73.00;;;;;;5055878;28;20447;-29
2022/03/30 03:18:27;;;;;;;17.45;9.43;;;6.00;73.10;;;;;;5055771;28;20025;-34
2022/03/30 03:20:52;;;;;;;21.35;9.55;;;6.00;73.30;;;;;;5055901;28;20025;-29
2022/03/30 03:23:18;;;;;;;17.42;9.25;;;5.90;73.40;;;;;;5055765;28;20025;-30
2022/03/30 03:25:44;;;;;;;18.20;9.55;;;5.90;73.70;;;;;;5055703;28;20028;-31
2022/03/30 03:28:12;;;;;;;22.05;10.73;;;5.80;73.80;;;;;;5055700;28;20033;-30
2022/03/30 03:30:39;;;;;;;25.42;9.75;;;5.80;74.10;;;;;;5055553;28;20033;-29
2022/03/30 03:33:05;;;;;;;19.80;9.55;;;5.70;74.30;;;;;;5055549;28;20378;-28
2022/03/30 03:35:31;;;;;;;23.20;9.88;;;5.70;74.50;;;;;;5055576;28;20524;-29
2022/03/30 03:37:58;;;;;;;22.88;10.90;;;5.60;74.60;;;;;;5055444;28;20033;-27
2022/03/30 03:40:24;;;;;;;20.83;10.18;;;5.60;74.80;;;;;;5055448;28;20556;-31
2022/03/30 03:42:49;;;;;;;18.60;8.73;;;5.50;74.90;;;;;;5055405;28;20100;-30
2022/03/30 03:45:16;;;;;;;20.23;10.45;;;5.50;75.10;;;;;;5055387;28;20029;-29
2022/03/30 03:47:41;;;;;;;17.33;8.73;;;5.50;75.10;;;;;;5055517;28;20025;-30
2022/03/30 03:50:07;;;;;;;18.52;9.48;;;5.40;75.10;;;;;;5055256;28;20108;-29
2022/03/30 03:52:33;;;;;;;16.48;8.85;;;5.40;75.20;;;;;;5055157;28;20389;-30
2022/03/30 03:54:59;;;;;;;22.17;10.13;;;5.40;75.30;;;;;;5053917;28;20029;-28
2022/03/30 03:57:25;;;;;;;15.80;8.55;;;5.40;75.30;;;;;;5055048;28;20103;-31
2022/03/30 03:59:51;;;;;;;14.27;8.27;;;5.40;75.30;;;;;;5054933;28;20156;-34
2022/03/30 04:02:16;;;;;;;20.25;9.63;;;5.30;75.30;;;;;;5055330;28;20021;-35
2022/03/30 04:04:44;;;;;;;20.42;8.95;;;5.40;75.30;;;;;;5054921;28;20028;-30
2022/03/30 04:07:09;;;;;;;18.40;8.40;;;5.40;75.30;;;;;;5055097;28;20355;-33
2022/03/30 04:09:36;;;;;;;17.48;8.52;;;5.40;75.30;;;;;;5054875;28;20097;-31
2022/03/30 04:12:02;;;;;;;18.85;8.65;;;5.30;75.30;;;;;;5055065;28;20111;-33
2022/03/30 04:14:27;;;;;;;21.08;8.60;;;5.30;75.30;;;;;;5054799;28;20126;-29
2022/03/30 04:16:53;;;;;;;16.08;8.55;;;5.40;75.40;;;;;;5054717;28;20064;-30
2022/03/30 04:19:18;;;;;;;19.58;8.43;;;5.40;75.40;;;;;;5054624;28;20124;-30
2022/03/30 04:21:44;;;;;;;17.80;7.95;;;5.40;75.40;;;;;;5054671;28;20334;-28
2022/03/30 04:24:10;;;;;;;16.08;8.45;;;5.50;75.40;;;;;;5054853;28;20036;-33
2022/03/30 04:26:37;;;;;;;14.27;7.88;;;5.50;75.20;;;;;;5053285;28;20021;-28
2022/03/30 04:29:03;;;;;;;15.35;8.40;;;5.50;75.20;;;;;;5054565;28;20031;-28
2022/03/30 04:31:29;;;;;;;14.05;7.70;;;5.50;75.10;;;;;;5054501;28;20037;-28
2022/03/30 04:33:54;;;;;;;13.18;7.40;;;5.50;75.10;;;;;;5054341;28;20035;-31
2022/03/30 04:36:23;;;;;;;17.38;9.13;;;5.50;75.10;;;;;;5054417;28;20071;-29
2022/03/30 04:38:49;;;;;;;17.83;8.70;;;5.50;75.10;;;;;;5053058;28;20064;-29
2022/03/30 04:41:14;;;;;;;17.80;7.57;;;5.50;75.10;;;;;;5054495;28;20527;-29
2022/03/30 04:43:40;;;;;;;16.27;8.57;;;5.50;75.10;;;;;;5054260;28;20496;-30
2022/03/30 04:46:08;;;;;;;16.33;8.55;;;5.50;75.00;;;;;;5054193;28;20028;-30
2022/03/30 04:48:34;;;;;;;16.35;8.80;;;5.50;75.10;;;;;;5054234;28;20469;-30
2022/03/30 04:50:59;;;;;;;21.13;9.20;;;5.50;75.10;;;;;;5054468;28;20041;-31
2022/03/30 04:53:25;;;;;;;15.60;8.88;;;5.50;75.00;;;;;;5054242;28;20128;-29
2022/03/30 04:55:53;;;;;;;17.83;9.38;;;5.50;75.00;;;;;;5054166;28;20393;-32
2022/03/30 04:58:19;;;;;;;15.35;8.20;;;5.50;75.00;;;;;;5054002;28;20135;-28
2022/03/30 05:00:45;;;;;;;17.67;8.25;;;5.50;75.00;;;;;;5054147;28;20021;-31
2022/03/30 05:03:10;;;;;;;17.80;8.68;;;5.50;75.00;;;;;;5054070;28;20120;-33
2022/03/30 05:05:36;;;;;;;18.98;8.65;;;5.50;75.00;;;;;;5053861;28;20393;-31
2022/03/30 05:08:01;;;;;;;15.55;8.35;;;5.50;75.00;;;;;;5054168;28;20105;-31
2022/03/30 05:10:28;;;;;;;19.88;9.23;;;5.50;75.00;;;;;;5053917;28;20509;-29
2022/03/30 05:12:55;;;;;;;16.48;9.18;;;5.50;74.90;;;;;;5052616;28;20029;-28
2022/03/30 05:15:23;;;;;;;19.15;8.90;;;5.50;74.90;;;;;;5054096;28;20103;-30
2022/03/30 05:17:49;;;;;;;19.25;9.30;;;5.60;74.90;;;;;;5053695;28;20090;-33
2022/03/30 05:20:16;;;;;;;15.20;8.57;;;5.60;74.90;;;;;;5053861;28;20022;-30
2022/03/30 05:22:43;;;;;;;17.83;8.73;;;5.60;74.80;;;;;;5053858;28;20056;-29
2022/03/30 05:25:10;;;;;;;18.35;9.35;;;5.60;74.80;;;;;;5053461;28;20489;-29
2022/03/30 05:27:41;;;;;;;18.35;8.35;;;5.60;74.70;;;;;;5053562;28;20354;-29
2022/03/30 05:30:08;;;;;;;17.38;9.00;;;5.60;74.70;;;;;;5053292;28;20025;-28
2022/03/30 05:32:34;;;;;;;17.67;8.73;;;5.60;74.70;;;;;;5053522;28;20049;-31
2022/03/30 05:35:01;;;;;;;18.70;9.30;;;5.60;74.70;;;;;;5053565;28;20405;-29
2022/03/30 05:37:27;;;;;;;18.17;9.43;;;5.70;74.70;;;;;;5053229;28;20039;-32
2022/03/30 05:39:53;;;;;;;15.80;8.10;;;5.60;74.60;;;;;;5052959;28;20021;-30
2022/03/30 05:42:20;;;;;;;16.17;8.45;;;5.70;74.60;;;;;;5053311;28;20025;-32
2022/03/30 05:44:46;;;;;;;15.70;8.25;;;5.70;74.50;;;;;;5052979;28;20032;-30
2022/03/30 05:47:14;;;;;;;16.42;8.65;;;5.70;74.40;;;;;;5053002;28;20121;-29
2022/03/30 05:49:39;;;;;;;17.55;9.07;;;5.70;74.40;;;;;;5052854;28;20040;-29
2022/03/30 05:52:06;;;;;;;16.02;8.38;;;5.70;74.30;;;;;;5053008;28;20029;-30
2022/03/30 05:54:31;;;;;;;17.73;8.43;;;5.70;74.30;;;;;;5053011;28;20040;-32
2022/03/30 05:57:00;;;;;;;15.27;8.15;;;5.70;74.20;;;;;;5052848;28;20375;-30
2022/03/30 05:59:26;;;;;;;13.73;7.30;;;5.80;74.30;;;;;;5052730;28;20439;-47
2022/03/30 06:01:52;;;;;;;16.52;7.10;;;5.80;74.20;;;;;;5052779;28;20029;-48
2022/03/30 06:04:18;;;;;;;15.13;8.02;;;5.80;74.10;;;;;;5052749;28;20090;-48
2022/03/30 06:06:43;;;;;;;17.70;7.82;;;5.80;74.20;;;;;;5052662;28;20112;-47
2022/03/30 06:09:09;;;;;;;13.50;7.35;;;5.80;74.30;;;;;;5052734;28;20474;-47
2022/03/30 06:11:34;;;;;;;13.50;7.35;;;5.80;74.40;;;;;;5052656;28;20393;-47
2022/03/30 06:14:00;;;;;;;17.42;7.93;;;5.80;74.30;;;;;;5052647;28;20393;-47
2022/03/30 06:16:27;;;;;;;14.90;7.65;;;5.80;75.00;;;;;;5052514;28;20128;-40
2022/03/30 06:18:54;;;;;;;17.67;7.45;;;5.80;74.40;;;;;;5052619;28;20537;-41
2022/03/30 06:21:20;;;;;;;17.98;8.15;;;5.80;74.50;;;;;;5052660;28;20096;-41
2022/03/30 06:23:45;;;;;;;16.08;7.90;;;5.80;74.50;;;;;;5051395;28;20125;-41
2022/03/30 06:26:11;;;;;;;17.40;8.00;;;5.80;74.50;;;;;;5052576;28;20108;-41
2022/03/30 06:28:37;;;;;;;16.75;8.45;;;5.80;74.50;;;;;;5052766;28;20032;-41
2022/03/30 06:31:03;;;;;;;16.73;8.10;;;5.80;74.50;;;;;;5052805;28;20032;-41
2022/03/30 06:33:29;;;;;;;16.20;9.25;;;5.80;74.60;;;;;;5052511;28;20031;-41
2022/03/30 06:35:55;;;;;;;15.98;9.27;;;5.80;74.60;;;;;;5052775;28;20025;-41
2022/03/30 06:38:21;;;;;;;14.80;8.40;;;5.90;74.70;;;;;;5052528;28;20437;-41
2022/03/30 06:40:47;;;;;;;16.30;8.35;;;5.90;74.70;;;;;;5052455;28;20021;-41
2022/03/30 06:43:15;;;;;;;17.70;8.02;;;6.00;74.70;;;;;;5052368;28;20040;-40
2022/03/30 06:45:43;;;;;;;12.63;7.85;;;6.00;74.50;;;;;;5052503;28;20120;-41
2022/03/30 06:48:11;;;;;;;12.10;6.78;;;6.10;74.40;;;;;;5051018;28;20033;-42
2022/03/30 06:50:37;;;;;;;13.40;6.82;;;6.20;74.30;;;;;;5052328;28;20025;-41
2022/03/30 06:53:05;;;;;;;13.23;6.93;;;6.30;74.10;;;;;;5052606;28;20094;-41
2022/03/30 06:55:31;;;;;;;13.77;6.90;;;6.40;73.90;;;;;;5052460;28;20044;-40
2022/03/30 06:57:57;;;;;;;14.63;6.82;;;6.60;73.70;;;;;;5052205;28;20417;-40
2022/03/30 07:00:22;;;;;;;12.88;6.50;;;6.70;73.50;;;;;;5052238;28;20025;-40
2022/03/30 07:02:48;;;;;;;12.43;6.47;;;6.90;73.30;;;;;;5051008;28;20037;-41
2022/03/30 07:05:14;;;;;;;12.52;6.75;;;7.00;73.10;;;;;;5052655;28;20073;-41
2022/03/30 07:10:24;;;;;;;15.73;6.55;;;7.20;72.80;;;;;;5052410;28;20519;-41
2022/03/30 07:12:51;;;;;;;15.05;7.43;;;7.30;72.70;;;;;;5050981;28;20061;-39
2022/03/30 07:15:19;;;;;;;14.75;7.32;;;7.30;72.50;;;;;;5052468;28;20024;-41
2022/03/30 07:17:57;;;;;;;15.20;7.90;;;7.40;72.40;;;;;;5052075;28;20029;-40
2022/03/30 07:20:25;;;;;;;14.48;6.70;;;7.40;72.30;;;;;;5052338;28;20481;-41
2022/03/30 07:22:51;;;;;;;14.27;6.90;;;7.50;72.30;;;;;;5050766;28;20095;-41
2022/03/30 07:25:19;;;;;;;12.43;6.25;;;7.60;72.20;;;;;;5052388;28;20025;-41
2022/03/30 07:27:48;;;;;;;13.43;6.50;;;7.70;72.10;;;;;;5052252;28;20063;-41
2022/03/30 07:30:15;;;;;;;11.88;5.72;;;7.70;72.00;;;;;;5055745;28;20021;-41
2022/03/30 07:32:44;;;;;;;12.30;6.43;;;7.80;72.00;;;;;;5055534;28;20036;-41
2022/03/30 07:35:12;;;;;;;13.07;5.65;;;7.80;71.80;;;;;;5055944;28;20024;-41
2022/03/30 07:37:39;;;;;;;12.07;6.00;;;7.90;71.70;;;;;;5055769;28;20362;-40
2022/03/30 07:40:06;;;;;;;10.25;5.97;;;8.00;71.60;;;;;;5055566;28;20033;-40
2022/03/30 07:42:32;;;;;;;10.90;5.43;;;8.10;71.50;;;;;;5055514;28;20029;-41
2022/03/30 07:44:58;;;;;;;11.55;6.13;;;8.20;71.30;;;;;;5054106;28;20032;-40
2022/03/30 07:47:29;;;;;;;10.93;6.10;;;8.20;71.10;;;;;;5055344;28;20031;-40
2022/03/30 07:49:55;;;;;;;11.43;6.05;;;8.30;71.00;;;;;;5055318;28;20028;-40
2022/03/30 07:52:22;;;;;;;12.50;6.00;;;8.30;70.90;;;;;;5055269;28;20033;-40
2022/03/30 07:54:48;;;;;;;12.32;6.97;;;8.40;70.80;;;;;;5055168;28;20370;-40
2022/03/30 07:57:15;;;;;;;15.18;8.07;;;8.40;70.80;;;;;;5055266;28;20116;-41
2022/03/30 07:59:41;;;;;;;17.45;8.32;;;8.40;70.80;;;;;;5054973;28;20128;-41
2022/03/30 08:02:07;;;;;;;14.82;8.05;;;8.40;70.90;;;;;;5055187;28;20529;-42
2022/03/30 08:04:33;;;;;;;18.48;8.73;;;8.30;70.90;;;;;;5055292;28;20477;-42
2022/03/30 08:06:59;;;;;;;17.27;8.20;;;8.30;71.10;;;;;;5055164;28;20025;-41
2022/03/30 08:09:24;;;;;;;19.33;8.48;;;8.30;71.30;;;;;;5055473;28;20071;-41
2022/03/30 08:11:50;;;;;;;20.33;8.88;;;8.30;71.40;;;;;;5055215;28;20033;-40
2022/03/30 08:14:16;;;;;;;20.98;9.60;;;8.30;71.90;;;;;;5055029;28;20032;-41
2022/03/30 08:16:41;;;;;;;19.30;9.65;;;8.30;72.10;;;;;;5054993;28;20071;-41
2022/03/30 08:19:08;;;;;;;21.20;8.82;;;8.30;72.10;;;;;;5054923;28;20028;-41
2022/03/30 08:24:20;;;;;;;16.27;8.15;;;8.30;72.10;;;;;;5055171;28;20093;-41
2022/03/30 08:26:46;;;;;;;18.63;9.38;;;8.30;72.00;;;;;;5054801;28;20542;-40
2022/03/30 08:29:12;;;;;;;20.58;9.48;;;8.30;71.80;;;;;;5054837;28;20029;-42
2022/03/30 08:31:37;;;;;;;18.98;9.07;;;8.30;71.80;;;;;;5053390;28;20341;-41
2022/03/30 08:34:03;;;;;;;17.52;8.98;;;8.40;71.80;;;;;;5054607;28;20029;-42
2022/03/30 08:36:29;;;;;;;14.95;7.80;;;8.40;71.60;;;;;;5054475;28;20116;-39
2022/03/30 08:38:58;;;;;;;14.85;7.63;;;8.50;71.50;;;;;;5054450;28;20029;-40
2022/03/30 08:41:25;;;;;;;17.75;8.70;;;8.70;71.30;;;;;;5053820;28;20017;-41
2022/03/30 08:43:51;;;;;;;19.75;8.95;;;8.80;71.10;;;;;;5054702;28;20481;-40
2022/03/30 08:46:16;;;;;;;16.55;9.50;;;8.90;71.00;;;;;;5054326;28;20562;-40
2022/03/30 08:48:42;;;;;;;18.77;9.23;;;9.00;70.80;;;;;;5054506;28;20055;-39
2022/03/30 08:51:08;;;;;;;22.42;11.38;;;9.10;70.70;;;;;;5054367;28;20512;-40
2022/03/30 08:53:34;;;;;;;19.98;9.88;;;9.20;70.70;;;;;;5054590;28;20033;-40
2022/03/30 08:56:00;;;;;;;21.58;11.38;;;9.20;70.80;;;;;;5054514;28;20028;-41
2022/03/30 08:58:27;;;;;;;22.92;11.82;;;9.20;70.80;;;;;;5054265;28;20132;-41
2022/03/30 09:00:52;;;;;;;23.90;10.68;;;9.30;70.90;;;;;;5054249;28;20027;-41
2022/03/30 09:03:19;;;;;;;22.23;9.48;;;9.30;71.40;;;;;;5054140;28;20033;-39
2022/03/30 09:05:45;;;;;;;20.23;9.27;;;9.40;70.60;;;;;;5052741;28;20036;-40
2022/03/30 09:08:25;;;;;;;21.40;9.63;;;9.50;70.40;;;;;;5054259;28;20029;-40
2022/03/30 09:10:53;;;;;;;22.05;9.18;;;9.50;70.20;;;;;;5053938;28;20021;-41
2022/03/30 09:13:20;;;;;;;16.33;8.23;;;9.60;69.90;;;;;;5053976;28;20033;-43
2022/03/30 09:15:47;;;;;;;13.45;7.20;;;9.60;69.50;;;;;;5053700;28;20041;-40
2022/03/30 09:18:16;;;;;;;12.80;6.93;;;9.50;68.70;;;;;;5053903;28;20437;-40
2022/03/30 09:20:45;;;;;;;12.38;6.75;;;9.50;68.50;;;;;;5053874;28;20029;-40
2022/03/30 09:23:13;;;;;;;10.15;6.43;;;9.50;68.20;;;;;;5053895;28;20419;-41
2022/03/30 09:25:42;;;;;;;9.65;5.90;;;9.60;68.30;;;;;;5053644;28;20063;-40
2022/03/30 09:28:08;;;;;;;10.27;6.07;;;9.60;67.90;;;;;;5053686;28;20021;-42
2022/03/30 09:30:33;;;;;;;9.13;5.30;;;9.60;68.00;;;;;;5053528;28;20082;-40
2022/03/30 09:32:59;;;;;;;9.27;5.97;;;9.50;68.00;;;;;;5053444;28;20028;-40
2022/03/30 09:35:41;;;;;;;14.85;7.20;;;9.50;68.00;;;;;;5053612;28;20485;-40
2022/03/30 09:38:11;;;;;;;19.40;8.10;;;9.60;68.10;;;;;;5053823;28;20142;-40
2022/03/30 09:40:54;;;;;;;15.15;7.93;;;9.50;68.10;;;;;;5053665;28;20021;-39
2022/03/30 09:43:20;;;;;;;14.80;7.40;;;9.50;68.10;;;;;;5053426;28;20497;-40
2022/03/30 09:45:48;;;;;;;16.48;7.60;;;9.50;68.00;;;;;;5053272;28;20104;-40
2022/03/30 09:48:17;;;;;;;12.70;6.90;;;9.50;68.10;;;;;;5053389;28;20028;-41
2022/03/30 09:50:46;;;;;;;10.57;6.20;;;9.60;68.10;;;;;;5053192;28;20021;-37
2022/03/30 09:53:13;;;;;;;9.25;5.45;;;9.70;68.10;;;;;;5052333;28;20025;-40
2022/03/30 09:56:08;;;;;;;12.05;5.50;;;9.80;67.80;;;;;;5053078;28;20029;-41
2022/03/30 09:58:39;;;;;;;9.80;5.43;;;10.00;67.40;;;;;;5052993;28;20120;-50
2022/03/30 10:01:04;;;;;;;9.45;5.40;;;10.20;67.20;;;;;;5053064;28;20100;-40
2022/03/30 10:03:52;;;;;;;8.63;4.75;;;10.40;66.90;;;;;;5052880;28;20572;-40
2022/03/30 10:06:32;;;;;;;8.40;4.53;;;10.60;66.30;;;;;;5052983;28;20021;-40
2022/03/30 10:08:58;;;;;;;7.63;4.80;;;10.80;65.80;;;;;;5052877;28;20029;-41
2022/03/30 10:11:27;;;;;;;6.03;4.07;;;10.90;64.90;;;;;;5053001;28;20507;-41
2022/03/30 10:13:59;;;;;;;6.20;4.05;;;11.00;64.80;;;;;;5052895;28;20514;-40
2022/03/30 10:16:25;;;;;;;5.10;4.22;;;11.20;64.60;;;;;;5052705;28;20477;-38
2022/03/30 10:18:52;;;;;;;7.32;4.30;;;11.40;64.00;;;;;;5052646;28;20036;-40
2022/03/30 10:21:52;;;;;;;6.63;3.65;;;11.60;63.50;;;;;;5052729;28;20025;-41
2022/03/30 10:24:29;;;;;;;7.50;3.78;;;11.80;63.10;;;;;;5052609;28;20429;-39
2022/03/30 10:27:16;;;;;;;5.03;3.50;;;12.00;62.60;;;;;;5052664;28;20025;-40
2022/03/30 10:29:53;;;;;;;4.82;3.33;;;12.10;62.20;;;;;;5052509;28;20029;-39
2022/03/30 10:32:21;;;;;;;6.13;3.92;;;12.20;62.00;;;;;;5051260;28;20021;-39
2022/03/30 10:35:09;;;;;;;5.78;3.45;;;12.20;61.60;;;;;;5052532;28;20080;-40
2022/03/30 10:37:43;;;;;;;6.32;3.90;;;12.20;61.20;;;;;;5052971;28;20047;-40
2022/03/30 10:40:10;;;;;;;7.05;4.30;;;12.20;60.80;;;;;;5052464;28;20027;-41
2022/03/30 10:42:52;;;;;;;10.38;5.13;;;12.30;59.90;;;;;;5051226;28;20029;-39
2022/03/30 10:45:30;;;;;;;8.48;4.93;;;12.10;58.50;;;;;;5052461;28;20048;-40
2022/03/30 10:48:06;;;;;;;10.02;4.68;;;12.00;58.50;;;;;;5052487;28;20416;-40
2022/03/30 10:50:34;;;;;;;8.85;5.47;;;11.80;58.70;;;;;;5052366;28;20385;-40
2022/03/30 10:52:59;;;;;;;9.55;5.45;;;11.80;59.10;;;;;;5051121;28;20021;-39
2022/03/30 10:55:25;;;;;;;9.73;4.72;;;11.80;59.00;;;;;;5052421;28;20021;-39
2022/03/30 10:58:04;;;;;;;8.60;4.68;;;11.80;59.10;;;;;;5052137;28;20124;-40
2022/03/30 11:00:39;;;;;;;5.68;4.38;;;11.90;58.70;;;;;;5052328;28;20021;-39
2022/03/30 11:03:17;;;;;;;9.05;4.38;;;11.90;58.90;;;;;;5053130;28;20104;-41
2022/03/30 11:05:58;;;;;;;6.35;4.45;;;12.10;58.30;;;;;;5056532;28;20032;-36
2022/03/30 11:08:33;;;;;;;7.28;4.30;;;12.10;58.40;;;;;;5056427;28;20028;-40
2022/03/30 11:11:02;;;;;;;6.88;3.72;;;12.20;58.30;;;;;;5056504;28;20025;-40
2022/03/30 11:13:28;;;;;;;6.57;3.80;;;12.30;57.90;;;;;;5056170;28;20028;-40
2022/03/30 11:16:06;;;;;;;6.13;3.80;;;12.30;58.20;;;;;;5056038;28;20021;-39
2022/03/30 11:18:32;;;;;;;7.95;4.40;;;12.50;57.80;;;;;;5056241;28;20032;-40
2022/03/30 11:21:15;;;;;;;6.63;4.22;;;12.50;56.90;;;;;;5055964;28;20511;-40
2022/03/30 11:24:01;;;;;;;9.95;4.80;;;12.60;56.40;;;;;;5056079;28;20033;-39
2022/03/30 11:26:48;;;;;;;8.48;4.57;;;12.40;56.70;;;;;;5055683;28;20025;-40
2022/03/30 11:29:42;;;;;;;5.30;3.80;;;12.40;56.90;;;;;;5055653;28;20026;-40
2022/03/30 11:32:23;;;;;;;7.07;4.43;;;12.30;56.90;;;;;;5055618;28;20025;-39
2022/03/30 11:35:00;;;;;;;6.97;4.13;;;12.30;56.20;;;;;;5055634;28;20029;-40
2022/03/30 11:37:31;;;;;;;6.65;4.03;;;12.20;56.80;;;;;;5055687;28;20082;-41
2022/03/30 11:40:01;;;;;;;5.30;3.70;;;12.10;57.00;;;;;;5054274;28;20392;-40
2022/03/30 11:42:27;;;;;;;5.63;3.80;;;12.20;57.20;;;;;;5056776;28;20389;-40
2022/03/30 11:47:39;;;;;;;6.40;4.32;;;12.40;57.00;;;;;;5055641;28;20036;-39
2022/03/30 11:50:05;;;;;;;7.47;4.45;;;12.30;56.30;;;;;;5055350;28;20029;-41
2022/03/30 11:52:31;;;;;;;5.82;3.78;;;12.30;56.70;;;;;;5055419;28;20020;-40
2022/03/30 11:54:57;;;;;;;6.10;4.15;;;12.30;56.70;;;;;;5055182;28;20504;-40
2022/03/30 11:57:23;;;;;;;8.30;4.25;;;12.30;56.70;;;;;;5055234;28;20028;-38
2022/03/30 12:00:01;;;;;;;5.78;3.90;;;12.30;56.80;;;;;;5054956;28;20045;-40
2022/03/30 12:02:28;;;;;;;4.93;3.42;;;12.30;56.70;;;;;;5055221;28;20017;-41
2022/03/30 12:04:54;;;;;;;5.35;3.70;;;12.30;56.60;;;;;;5055246;28;20025;-40
2022/03/30 12:07:20;;;;;;;5.03;3.60;;;12.40;56.40;;;;;;5053938;28;20036;-39
2022/03/30 12:09:47;;;;;;;5.22;3.60;;;12.50;56.60;;;;;;5053820;28;20400;-40
2022/03/30 12:12:24;;;;;;;4.88;3.35;;;12.70;56.40;;;;;;5055043;28;20469;-41
2022/03/30 12:15:00;;;;;;;5.65;3.90;;;12.90;56.40;;;;;;5053810;28;20017;-40
2022/03/30 12:17:27;;;;;;;7.25;4.05;;;13.00;55.40;;;;;;5054910;28;20032;-40
2022/03/30 12:19:54;;;;;;;6.93;4.07;;;13.00;55.50;;;;;;5054722;28;20485;-40
2022/03/30 12:22:20;;;;;;;5.72;3.40;;;13.00;55.50;;;;;;5054812;28;20020;-39
2022/03/30 12:24:46;;;;;;;4.53;3.30;;;13.00;55.60;;;;;;5054673;28;20078;-39
2022/03/30 12:27:11;;;;;;;6.70;3.75;;;13.10;55.30;;;;;;5054551;28;20021;-40
2022/03/30 12:29:38;;;;;;;6.10;4.10;;;13.00;55.20;;;;;;5054602;28;20381;-40
2022/03/30 12:32:05;;;;;;;7.25;4.15;;;13.00;55.30;;;;;;5054472;28;20021;-40
2022/03/30 12:34:36;;;;;;;5.25;3.75;;;12.90;54.70;;;;;;5053250;28;20025;-39
2022/03/30 12:37:05;;;;;;;5.95;3.55;;;12.80;55.40;;;;;;5054631;28;20092;-39
2022/03/30 12:39:40;;;;;;;5.38;3.40;;;12.80;55.80;;;;;;5054706;28;20033;-39
2022/03/30 12:42:11;;;;;;;5.35;3.33;;;12.90;55.90;;;;;;5053181;28;20330;-40
2022/03/30 12:44:45;;;;;;;5.55;3.72;;;13.10;55.90;;;;;;5054625;28;20539;-43
2022/03/30 12:47:32;;;;;;;5.72;3.80;;;13.20;55.50;;;;;;5054412;28;20445;-40
2022/03/30 12:50:24;;;;;;;4.05;3.28;;;13.30;55.20;;;;;;5054316;28;20048;-39
2022/03/30 12:52:52;;;;;;;8.15;3.45;;;13.30;55.40;;;;;;5053055;28;20102;-40
2022/03/30 12:55:27;;;;;;;6.50;3.70;;;13.40;55.40;;;;;;5054475;28;20480;-40
2022/03/30 12:57:55;;;;;;;4.55;3.35;;;13.50;55.10;;;;;;5054110;28;20037;-39
2022/03/30 13:00:26;;;;;;;4.90;3.80;;;13.50;55.10;;;;;;5052826;28;20025;-39